sensor_id;sensor_type;location;lat;lon;timestamp;P1;durP1;ratioP1;P2;durP2;ratioP2
63050;SDS011;49136;47.416;19.402;2023-07-31T00:01:26;433.02;;;394.20;;
63050;SDS011;49136;47.416;19.402;2023-07-31T00:03:51;480.15;;;434.40;;
63050;SDS011;49136;47.416;19.402;2023-07-31T00:06:17;439.55;;;399.20;;
63050;SDS011;49136;47.416;19.402;2023-07-31T00:08:42;453.65;;;410.33;;
63050;SDS011;49136;47.416;19.402;2023-07-31T00:11:07;420.20;;;381.27;;
63050;SDS011;49136;47.416;19.402;2023-07-31T00:13:33;429.70;;;389.05;;
63050;SDS011;49136;47.416;19.402;2023-07-31T00:15:58;439.88;;;399.67;;
63050;SDS011;49136;47.416;19.402;2023-07-31T00:18:24;421.70;;;382.27;;
63050;SDS011;49136;47.416;19.402;2023-07-31T00:20:50;397.80;;;360.00;;
63050;SDS011;49136;47.416;19.402;2023-07-31T00:23:15;384.20;;;348.98;;
63050;SDS011;49136;47.416;19.402;2023-07-31T00:25:41;418.63;;;382.02;;
63050;SDS011;49136;47.416;19.402;2023-07-31T00:28:06;458.10;;;419.02;;
63050;SDS011;49136;47.416;19.402;2023-07-31T00:30:32;384.38;;;350.35;;
63050;SDS011;49136;47.416;19.402;2023-07-31T00:32:57;426.30;;;387.40;;
63050;SDS011;49136;47.416;19.402;2023-07-31T00:35:24;479.23;;;441.65;;
63050;SDS011;49136;47.416;19.402;2023-07-31T00:37:50;459.63;;;425.42;;
63050;SDS011;49136;47.416;19.402;2023-07-31T00:40:15;477.50;;;441.95;;
63050;SDS011;49136;47.416;19.402;2023-07-31T00:42:41;451.73;;;418.73;;
63050;SDS011;49136;47.416;19.402;2023-07-31T00:45:06;472.73;;;437.60;;
63050;SDS011;49136;47.416;19.402;2023-07-31T00:47:32;444.63;;;411.58;;
63050;SDS011;49136;47.416;19.402;2023-07-31T00:49:57;431.15;;;399.92;;
63050;SDS011;49136;47.416;19.402;2023-07-31T00:52:22;420.80;;;390.42;;
63050;SDS011;49136;47.416;19.402;2023-07-31T00:54:48;408.98;;;378.90;;
63050;SDS011;49136;47.416;19.402;2023-07-31T00:57:14;434.50;;;403.15;;
63050;SDS011;49136;47.416;19.402;2023-07-31T00:59:40;422.60;;;390.38;;
63050;SDS011;49136;47.416;19.402;2023-07-31T01:02:05;418.90;;;388.30;;
63050;SDS011;49136;47.416;19.402;2023-07-31T01:04:31;423.98;;;393.77;;
63050;SDS011;49136;47.416;19.402;2023-07-31T01:09:44;435.42;;;404.33;;
63050;SDS011;49136;47.416;19.402;2023-07-31T01:12:21;426.77;;;395.50;;
63050;SDS011;49136;47.416;19.402;2023-07-31T01:15:01;434.23;;;402.70;;
63050;SDS011;49136;47.416;19.402;2023-07-31T01:17:28;441.08;;;410.25;;
63050;SDS011;49136;47.416;19.402;2023-07-31T01:19:54;433.25;;;403.45;;
63050;SDS011;49136;47.416;19.402;2023-07-31T01:28:14;406.73;;;378.05;;
63050;SDS011;49136;47.416;19.402;2023-07-31T01:31:01;398.02;;;371.00;;
63050;SDS011;49136;47.416;19.402;2023-07-31T01:33:31;421.83;;;392.08;;
63050;SDS011;49136;47.416;19.402;2023-07-31T01:35:57;438.15;;;407.17;;
63050;SDS011;49136;47.416;19.402;2023-07-31T01:38:22;437.30;;;406.75;;
63050;SDS011;49136;47.416;19.402;2023-07-31T01:40:52;437.13;;;405.95;;
63050;SDS011;49136;47.416;19.402;2023-07-31T01:43:18;460.67;;;428.10;;
63050;SDS011;49136;47.416;19.402;2023-07-31T01:45:44;453.48;;;421.52;;
63050;SDS011;49136;47.416;19.402;2023-07-31T01:48:09;442.50;;;411.75;;
63050;SDS011;49136;47.416;19.402;2023-07-31T01:50:34;427.20;;;397.13;;
63050;SDS011;49136;47.416;19.402;2023-07-31T01:53:00;442.17;;;411.00;;
63050;SDS011;49136;47.416;19.402;2023-07-31T01:55:25;464.70;;;431.27;;
63050;SDS011;49136;47.416;19.402;2023-07-31T01:57:51;444.75;;;412.33;;
63050;SDS011;49136;47.416;19.402;2023-07-31T02:00:17;476.70;;;441.05;;
63050;SDS011;49136;47.416;19.402;2023-07-31T02:02:43;510.08;;;472.35;;
63050;SDS011;49136;47.416;19.402;2023-07-31T02:05:08;472.00;;;437.95;;
63050;SDS011;49136;47.416;19.402;2023-07-31T02:07:34;484.75;;;450.92;;
63050;SDS011;49136;47.416;19.402;2023-07-31T02:09:59;454.52;;;422.17;;
63050;SDS011;49136;47.416;19.402;2023-07-31T02:12:24;464.80;;;432.20;;
63050;SDS011;49136;47.416;19.402;2023-07-31T02:14:50;447.02;;;415.08;;
63050;SDS011;49136;47.416;19.402;2023-07-31T02:17:15;468.90;;;434.48;;
63050;SDS011;49136;47.416;19.402;2023-07-31T02:19:41;459.45;;;424.48;;
63050;SDS011;49136;47.416;19.402;2023-07-31T02:22:06;466.48;;;429.52;;
63050;SDS011;49136;47.416;19.402;2023-07-31T02:24:32;475.35;;;437.23;;
63050;SDS011;49136;47.416;19.402;2023-07-31T02:26:57;426.20;;;390.85;;
63050;SDS011;49136;47.416;19.402;2023-07-31T02:29:22;481.02;;;439.58;;
63050;SDS011;49136;47.416;19.402;2023-07-31T02:31:48;547.67;;;500.35;;
63050;SDS011;49136;47.416;19.402;2023-07-31T02:34:13;519.60;;;473.98;;
63050;SDS011;49136;47.416;19.402;2023-07-31T02:36:39;530.30;;;485.20;;
63050;SDS011;49136;47.416;19.402;2023-07-31T02:39:04;533.50;;;487.80;;
63050;SDS011;49136;47.416;19.402;2023-07-31T02:41:30;577.33;;;527.03;;
63050;SDS011;49136;47.416;19.402;2023-07-31T02:43:55;602.08;;;548.78;;
63050;SDS011;49136;47.416;19.402;2023-07-31T02:46:20;586.83;;;533.88;;
63050;SDS011;49136;47.416;19.402;2023-07-31T02:48:49;557.03;;;509.70;;
63050;SDS011;49136;47.416;19.402;2023-07-31T02:51:14;578.58;;;529.00;;
63050;SDS011;49136;47.416;19.402;2023-07-31T02:53:40;658.25;;;602.28;;
63050;SDS011;49136;47.416;19.402;2023-07-31T02:56:05;630.95;;;576.95;;
63050;SDS011;49136;47.416;19.402;2023-07-31T02:58:31;661.30;;;604.58;;
63050;SDS011;49136;47.416;19.402;2023-07-31T03:00:57;692.40;;;632.33;;
63050;SDS011;49136;47.416;19.402;2023-07-31T03:03:23;673.92;;;615.70;;
63050;SDS011;49136;47.416;19.402;2023-07-31T03:05:49;665.78;;;607.63;;
63050;SDS011;49136;47.416;19.402;2023-07-31T03:08:14;657.38;;;601.15;;
63050;SDS011;49136;47.416;19.402;2023-07-31T03:10:40;659.30;;;602.35;;
63050;SDS011;49136;47.416;19.402;2023-07-31T03:13:06;646.20;;;591.75;;
63050;SDS011;49136;47.416;19.402;2023-07-31T03:15:32;644.72;;;590.30;;
63050;SDS011;49136;47.416;19.402;2023-07-31T03:17:57;711.35;;;651.00;;
63050;SDS011;49136;47.416;19.402;2023-07-31T03:20:22;735.35;;;671.13;;
63050;SDS011;49136;47.416;19.402;2023-07-31T03:22:48;681.42;;;621.00;;
63050;SDS011;49136;47.416;19.402;2023-07-31T03:25:13;708.42;;;645.88;;
63050;SDS011;49136;47.416;19.402;2023-07-31T03:27:39;709.78;;;648.33;;
63050;SDS011;49136;47.416;19.402;2023-07-31T03:30:05;701.85;;;641.92;;
63050;SDS011;49136;47.416;19.402;2023-07-31T03:32:30;693.50;;;634.75;;
63050;SDS011;49136;47.416;19.402;2023-07-31T03:34:56;719.22;;;657.80;;
63050;SDS011;49136;47.416;19.402;2023-07-31T03:37:22;737.80;;;674.35;;
63050;SDS011;49136;47.416;19.402;2023-07-31T03:39:48;735.17;;;671.47;;
63050;SDS011;49136;47.416;19.402;2023-07-31T03:42:13;720.55;;;657.03;;
63050;SDS011;49136;47.416;19.402;2023-07-31T03:44:38;739.58;;;674.85;;
63050;SDS011;49136;47.416;19.402;2023-07-31T03:47:04;710.42;;;647.95;;
63050;SDS011;49136;47.416;19.402;2023-07-31T03:49:30;743.55;;;678.22;;
63050;SDS011;49136;47.416;19.402;2023-07-31T03:51:56;729.25;;;665.03;;
63050;SDS011;49136;47.416;19.402;2023-07-31T03:54:21;752.38;;;685.72;;
63050;SDS011;49136;47.416;19.402;2023-07-31T03:56:46;726.97;;;662.30;;
63050;SDS011;49136;47.416;19.402;2023-07-31T03:59:12;731.05;;;667.05;;
63050;SDS011;49136;47.416;19.402;2023-07-31T04:01:37;733.13;;;667.85;;
63050;SDS011;49136;47.416;19.402;2023-07-31T04:04:03;711.83;;;648.35;;
63050;SDS011;49136;47.416;19.402;2023-07-31T04:06:28;716.25;;;652.40;;
63050;SDS011;49136;47.416;19.402;2023-07-31T04:08:54;762.60;;;692.13;;
63050;SDS011;49136;47.416;19.402;2023-07-31T04:11:19;772.40;;;701.85;;
63050;SDS011;49136;47.416;19.402;2023-07-31T04:13:44;784.70;;;714.35;;
63050;SDS011;49136;47.416;19.402;2023-07-31T04:16:10;776.30;;;705.97;;
63050;SDS011;49136;47.416;19.402;2023-07-31T04:18:35;755.22;;;689.00;;
63050;SDS011;49136;47.416;19.402;2023-07-31T04:21:01;725.17;;;662.63;;
63050;SDS011;49136;47.416;19.402;2023-07-31T04:23:27;689.22;;;631.20;;
63050;SDS011;49136;47.416;19.402;2023-07-31T04:25:53;612.80;;;562.58;;
63050;SDS011;49136;47.416;19.402;2023-07-31T04:28:18;526.00;;;483.92;;
63050;SDS011;49136;47.416;19.402;2023-07-31T04:30:43;496.27;;;459.77;;
63050;SDS011;49136;47.416;19.402;2023-07-31T04:33:09;483.48;;;447.95;;
63050;SDS011;49136;47.416;19.402;2023-07-31T04:35:34;483.85;;;449.58;;
63050;SDS011;49136;47.416;19.402;2023-07-31T04:38:00;496.10;;;459.40;;
63050;SDS011;49136;47.416;19.402;2023-07-31T04:40:25;509.60;;;471.98;;
63050;SDS011;49136;47.416;19.402;2023-07-31T04:42:51;538.33;;;498.05;;
63050;SDS011;49136;47.416;19.402;2023-07-31T04:45:16;510.63;;;472.25;;
63050;SDS011;49136;47.416;19.402;2023-07-31T04:47:42;478.17;;;442.52;;
63050;SDS011;49136;47.416;19.402;2023-07-31T04:50:08;450.27;;;416.13;;
63050;SDS011;49136;47.416;19.402;2023-07-31T04:52:33;457.45;;;421.70;;
63050;SDS011;49136;47.416;19.402;2023-07-31T04:54:59;438.15;;;405.55;;
63050;SDS011;49136;47.416;19.402;2023-07-31T04:57:24;396.23;;;365.92;;
63050;SDS011;49136;47.416;19.402;2023-07-31T04:59:49;421.33;;;390.50;;
63050;SDS011;49136;47.416;19.402;2023-07-31T05:02:15;438.48;;;407.05;;
63050;SDS011;49136;47.416;19.402;2023-07-31T05:04:40;420.58;;;391.75;;
63050;SDS011;49136;47.416;19.402;2023-07-31T05:07:06;413.60;;;385.42;;
63050;SDS011;49136;47.416;19.402;2023-07-31T05:09:31;390.38;;;364.17;;
63050;SDS011;49136;47.416;19.402;2023-07-31T05:11:57;383.38;;;358.67;;
63050;SDS011;49136;47.416;19.402;2023-07-31T05:14:22;328.08;;;308.50;;
63050;SDS011;49136;47.416;19.402;2023-07-31T05:16:48;280.85;;;262.70;;
63050;SDS011;49136;47.416;19.402;2023-07-31T05:19:13;278.67;;;258.33;;
63050;SDS011;49136;47.416;19.402;2023-07-31T05:21:39;353.92;;;324.50;;
63050;SDS011;49136;47.416;19.402;2023-07-31T05:24:04;404.25;;;369.38;;
63050;SDS011;49136;47.416;19.402;2023-07-31T05:26:30;455.88;;;416.55;;
63050;SDS011;49136;47.416;19.402;2023-07-31T05:28:55;495.08;;;451.77;;
63050;SDS011;49136;47.416;19.402;2023-07-31T05:31:21;501.27;;;457.42;;
63050;SDS011;49136;47.416;19.402;2023-07-31T05:33:47;542.65;;;494.75;;
63050;SDS011;49136;47.416;19.402;2023-07-31T05:36:15;534.05;;;488.48;;
63050;SDS011;49136;47.416;19.402;2023-07-31T05:38:41;516.53;;;471.98;;
63050;SDS011;49136;47.416;19.402;2023-07-31T05:41:07;548.47;;;501.15;;
63050;SDS011;49136;47.416;19.402;2023-07-31T05:43:32;561.17;;;513.17;;
63050;SDS011;49136;47.416;19.402;2023-07-31T05:45:58;416.20;;;385.13;;
63050;SDS011;49136;47.416;19.402;2023-07-31T05:48:23;285.27;;;265.35;;
63050;SDS011;49136;47.416;19.402;2023-07-31T05:50:48;271.38;;;253.95;;
63050;SDS011;49136;47.416;19.402;2023-07-31T05:53:14;207.85;;;194.85;;
63050;SDS011;49136;47.416;19.402;2023-07-31T05:55:39;204.80;;;191.27;;
63050;SDS011;49136;47.416;19.402;2023-07-31T05:58:05;328.23;;;303.38;;
63050;SDS011;49136;47.416;19.402;2023-07-31T06:00:30;341.45;;;318.35;;
63050;SDS011;49136;47.416;19.402;2023-07-31T06:02:56;448.05;;;416.23;;
63050;SDS011;49136;47.416;19.402;2023-07-31T06:05:21;296.38;;;277.80;;
63050;SDS011;49136;47.416;19.402;2023-07-31T06:07:47;296.95;;;278.02;;
63050;SDS011;49136;47.416;19.402;2023-07-31T06:10:12;292.83;;;274.23;;
63050;SDS011;49136;47.416;19.402;2023-07-31T06:12:38;249.15;;;234.38;;
63050;SDS011;49136;47.416;19.402;2023-07-31T06:15:04;203.45;;;191.25;;
63050;SDS011;49136;47.416;19.402;2023-07-31T06:17:30;278.50;;;262.17;;
63050;SDS011;49136;47.416;19.402;2023-07-31T06:19:56;235.40;;;221.88;;
63050;SDS011;49136;47.416;19.402;2023-07-31T06:22:22;277.90;;;262.88;;
63050;SDS011;49136;47.416;19.402;2023-07-31T06:24:48;248.25;;;234.95;;
63050;SDS011;49136;47.416;19.402;2023-07-31T06:27:13;194.02;;;182.75;;
63050;SDS011;49136;47.416;19.402;2023-07-31T06:29:42;263.70;;;246.77;;
63050;SDS011;49136;47.416;19.402;2023-07-31T06:32:07;365.80;;;341.73;;
63050;SDS011;49136;47.416;19.402;2023-07-31T06:34:33;325.20;;;304.10;;
63050;SDS011;49136;47.416;19.402;2023-07-31T06:36:58;253.15;;;237.10;;
63050;SDS011;49136;47.416;19.402;2023-07-31T06:39:24;294.15;;;275.58;;
63050;SDS011;49136;47.416;19.402;2023-07-31T06:41:49;296.67;;;278.20;;
63050;SDS011;49136;47.416;19.402;2023-07-31T06:44:15;327.02;;;305.73;;
63050;SDS011;49136;47.416;19.402;2023-07-31T06:46:42;347.30;;;324.50;;
63050;SDS011;49136;47.416;19.402;2023-07-31T06:49:07;248.40;;;232.27;;
63050;SDS011;49136;47.416;19.402;2023-07-31T06:51:33;150.02;;;140.20;;
63050;SDS011;49136;47.416;19.402;2023-07-31T06:53:58;171.93;;;161.15;;
63050;SDS011;49136;47.416;19.402;2023-07-31T06:56:24;348.10;;;325.73;;
63050;SDS011;49136;47.416;19.402;2023-07-31T06:58:49;380.75;;;351.58;;
63050;SDS011;49136;47.416;19.402;2023-07-31T07:01:15;152.98;;;143.60;;
63050;SDS011;49136;47.416;19.402;2023-07-31T07:03:40;171.57;;;159.60;;
63050;SDS011;49136;47.416;19.402;2023-07-31T07:06:05;272.95;;;254.73;;
63050;SDS011;49136;47.416;19.402;2023-07-31T07:08:32;371.55;;;346.35;;
63050;SDS011;49136;47.416;19.402;2023-07-31T07:10:57;386.95;;;352.33;;
63050;SDS011;49136;47.416;19.402;2023-07-31T07:13:22;657.00;;;590.70;;
63050;SDS011;49136;47.416;19.402;2023-07-31T07:15:48;326.30;;;304.00;;
63050;SDS011;49136;47.416;19.402;2023-07-31T07:18:14;306.25;;;282.58;;
63050;SDS011;49136;47.416;19.402;2023-07-31T07:20:40;176.55;;;165.35;;
63050;SDS011;49136;47.416;19.402;2023-07-31T07:23:11;317.45;;;296.52;;
63050;SDS011;49136;47.416;19.402;2023-07-31T07:25:37;168.60;;;157.45;;
63050;SDS011;49136;47.416;19.402;2023-07-31T07:28:03;164.32;;;153.45;;
63050;SDS011;49136;47.416;19.402;2023-07-31T07:30:31;153.27;;;142.65;;
63050;SDS011;49136;47.416;19.402;2023-07-31T07:32:56;180.43;;;168.85;;
63050;SDS011;49136;47.416;19.402;2023-07-31T07:35:22;202.07;;;188.70;;
63050;SDS011;49136;47.416;19.402;2023-07-31T07:37:50;232.63;;;217.23;;
63050;SDS011;49136;47.416;19.402;2023-07-31T07:40:16;216.60;;;203.60;;
63050;SDS011;49136;47.416;19.402;2023-07-31T07:42:41;200.43;;;188.02;;
63050;SDS011;49136;47.416;19.402;2023-07-31T07:45:07;169.18;;;158.63;;
63050;SDS011;49136;47.416;19.402;2023-07-31T07:47:33;134.90;;;126.32;;
63050;SDS011;49136;47.416;19.402;2023-07-31T07:49:58;159.55;;;149.23;;
63050;SDS011;49136;47.416;19.402;2023-07-31T07:52:24;117.43;;;110.10;;
63050;SDS011;49136;47.416;19.402;2023-07-31T07:54:49;144.27;;;135.15;;
63050;SDS011;49136;47.416;19.402;2023-07-31T07:57:15;185.73;;;172.00;;
63050;SDS011;49136;47.416;19.402;2023-07-31T07:59:40;139.65;;;130.05;;
63050;SDS011;49136;47.416;19.402;2023-07-31T08:02:06;189.20;;;176.20;;
63050;SDS011;49136;47.416;19.402;2023-07-31T08:04:31;138.27;;;128.70;;
63050;SDS011;49136;47.416;19.402;2023-07-31T08:06:57;135.20;;;126.53;;
63050;SDS011;49136;47.416;19.402;2023-07-31T08:09:22;113.13;;;105.82;;
63050;SDS011;49136;47.416;19.402;2023-07-31T08:11:52;132.25;;;122.90;;
63050;SDS011;49136;47.416;19.402;2023-07-31T08:14:17;200.15;;;185.25;;
63050;SDS011;49136;47.416;19.402;2023-07-31T08:16:43;195.57;;;181.23;;
63050;SDS011;49136;47.416;19.402;2023-07-31T08:19:09;195.18;;;181.25;;
63050;SDS011;49136;47.416;19.402;2023-07-31T08:21:34;160.90;;;150.68;;
63050;SDS011;49136;47.416;19.402;2023-07-31T08:23:59;170.07;;;158.13;;
63050;SDS011;49136;47.416;19.402;2023-07-31T08:26:25;140.45;;;131.20;;
63050;SDS011;49136;47.416;19.402;2023-07-31T08:28:50;188.65;;;176.13;;
63050;SDS011;49136;47.416;19.402;2023-07-31T08:31:16;195.32;;;181.98;;
63050;SDS011;49136;47.416;19.402;2023-07-31T08:33:41;572.63;;;427.90;;
63050;SDS011;49136;47.416;19.402;2023-07-31T08:36:07;319.33;;;294.45;;
63050;SDS011;49136;47.416;19.402;2023-07-31T08:38:32;279.42;;;258.45;;
63050;SDS011;49136;47.416;19.402;2023-07-31T08:40:58;265.77;;;245.98;;
63050;SDS011;49136;47.416;19.402;2023-07-31T08:43:27;238.27;;;220.55;;
63050;SDS011;49136;47.416;19.402;2023-07-31T08:45:53;416.15;;;372.95;;
63050;SDS011;49136;47.416;19.402;2023-07-31T08:48:22;447.67;;;407.52;;
63050;SDS011;49136;47.416;19.402;2023-07-31T08:50:49;468.77;;;429.70;;
63050;SDS011;49136;47.416;19.402;2023-07-31T08:53:16;595.67;;;537.53;;
63050;SDS011;49136;47.416;19.402;2023-07-31T08:55:42;582.75;;;526.17;;
63050;SDS011;49136;47.416;19.402;2023-07-31T08:58:09;720.65;;;651.28;;
63050;SDS011;49136;47.416;19.402;2023-07-31T09:00:37;737.85;;;666.10;;
63050;SDS011;49136;47.416;19.402;2023-07-31T09:03:03;589.30;;;532.45;;
63050;SDS011;49136;47.416;19.402;2023-07-31T09:05:43;557.42;;;503.40;;
63050;SDS011;49136;47.416;19.402;2023-07-31T09:08:11;501.88;;;458.65;;
63050;SDS011;49136;47.416;19.402;2023-07-31T09:10:42;598.17;;;540.25;;
63050;SDS011;49136;47.416;19.402;2023-07-31T09:13:08;715.33;;;582.05;;
63050;SDS011;49136;47.416;19.402;2023-07-31T09:15:35;670.22;;;604.75;;
63050;SDS011;49136;47.416;19.402;2023-07-31T09:18:02;668.15;;;603.38;;
63050;SDS011;49136;47.416;19.402;2023-07-31T09:20:30;623.13;;;559.28;;
63050;SDS011;49136;47.416;19.402;2023-07-31T09:22:57;645.78;;;582.55;;
63050;SDS011;49136;47.416;19.402;2023-07-31T09:25:45;609.63;;;551.95;;
63050;SDS011;49136;47.416;19.402;2023-07-31T09:28:11;584.53;;;527.60;;
63050;SDS011;49136;47.416;19.402;2023-07-31T09:30:50;649.88;;;586.65;;
63050;SDS011;49136;47.416;19.402;2023-07-31T09:33:16;663.60;;;600.38;;
63050;SDS011;49136;47.416;19.402;2023-07-31T09:35:42;642.47;;;579.03;;
63050;SDS011;49136;47.416;19.402;2023-07-31T09:38:09;628.78;;;565.67;;
63050;SDS011;49136;47.416;19.402;2023-07-31T09:40:37;619.88;;;560.45;;
63050;SDS011;49136;47.416;19.402;2023-07-31T09:43:07;516.00;;;468.45;;
63050;SDS011;49136;47.416;19.402;2023-07-31T09:45:36;588.75;;;531.78;;
63050;SDS011;49136;47.416;19.402;2023-07-31T09:48:03;734.33;;;662.45;;
63050;SDS011;49136;47.416;19.402;2023-07-31T09:50:34;663.28;;;598.20;;
63050;SDS011;49136;47.416;19.402;2023-07-31T09:53:02;650.15;;;587.67;;
63050;SDS011;49136;47.416;19.402;2023-07-31T09:55:27;279.05;;;257.45;;
63050;SDS011;49136;47.416;19.402;2023-07-31T09:57:55;490.77;;;444.00;;
63050;SDS011;49136;47.416;19.402;2023-07-31T10:00:22;308.73;;;284.27;;
63050;SDS011;49136;47.416;19.402;2023-07-31T10:02:50;775.90;;;522.00;;
63050;SDS011;49136;47.416;19.402;2023-07-31T10:05:16;420.05;;;354.13;;
63050;SDS011;49136;47.416;19.402;2023-07-31T10:08:01;370.83;;;339.90;;
63050;SDS011;49136;47.416;19.402;2023-07-31T10:10:28;351.23;;;322.95;;
63050;SDS011;49136;47.416;19.402;2023-07-31T10:12:55;323.08;;;295.75;;
63050;SDS011;49136;47.416;19.402;2023-07-31T10:15:22;310.08;;;284.10;;
63050;SDS011;49136;47.416;19.402;2023-07-31T10:17:48;275.40;;;253.02;;
63050;SDS011;49136;47.416;19.402;2023-07-31T10:20:15;297.95;;;270.73;;
63050;SDS011;49136;47.416;19.402;2023-07-31T10:22:42;284.02;;;259.20;;
63050;SDS011;49136;47.416;19.402;2023-07-31T10:25:09;307.08;;;281.50;;
63050;SDS011;49136;47.416;19.402;2023-07-31T10:27:38;246.98;;;226.25;;
63050;SDS011;49136;47.416;19.402;2023-07-31T10:30:05;242.05;;;223.55;;
63050;SDS011;49136;47.416;19.402;2023-07-31T10:32:34;229.80;;;211.85;;
63050;SDS011;49136;47.416;19.402;2023-07-31T10:35:00;203.13;;;189.35;;
63050;SDS011;49136;47.416;19.402;2023-07-31T10:48:05;268.80;;;245.85;;
63050;SDS011;49136;47.416;19.402;2023-07-31T10:50:32;232.05;;;213.75;;
63050;SDS011;49136;47.416;19.402;2023-07-31T10:58:18;151.43;;;140.10;;
63050;SDS011;49136;47.416;19.402;2023-07-31T11:00:45;429.20;;;385.33;;
63050;SDS011;49136;47.416;19.402;2023-07-31T11:03:13;293.60;;;271.88;;
63050;SDS011;49136;47.416;19.402;2023-07-31T11:08:12;299.23;;;274.20;;
63050;SDS011;49136;47.416;19.402;2023-07-31T11:10:43;197.98;;;183.75;;
63050;SDS011;49136;47.416;19.402;2023-07-31T11:13:09;228.45;;;210.07;;
63050;SDS011;49136;47.416;19.402;2023-07-31T11:15:35;427.77;;;381.13;;
63050;SDS011;49136;47.416;19.402;2023-07-31T11:18:01;320.63;;;294.98;;
63050;SDS011;49136;47.416;19.402;2023-07-31T11:20:36;312.90;;;282.40;;
63050;SDS011;49136;47.416;19.402;2023-07-31T11:23:04;194.95;;;180.95;;
63050;SDS011;49136;47.416;19.402;2023-07-31T11:25:31;254.25;;;234.15;;
63050;SDS011;49136;47.416;19.402;2023-07-31T11:28:04;187.25;;;172.85;;
63050;SDS011;49136;47.416;19.402;2023-07-31T11:30:32;230.55;;;212.43;;
63050;SDS011;49136;47.416;19.402;2023-07-31T11:33:03;271.70;;;246.27;;
63050;SDS011;49136;47.416;19.402;2023-07-31T11:35:31;190.73;;;176.55;;
63050;SDS011;49136;47.416;19.402;2023-07-31T11:38:28;296.50;;;272.05;;
63050;SDS011;49136;47.416;19.402;2023-07-31T11:40:57;237.18;;;216.50;;
63050;SDS011;49136;47.416;19.402;2023-07-31T11:43:24;149.50;;;137.45;;
63050;SDS011;49136;47.416;19.402;2023-07-31T11:45:52;140.40;;;130.95;;
63050;SDS011;49136;47.416;19.402;2023-07-31T11:50:53;279.48;;;252.77;;
63050;SDS011;49136;47.416;19.402;2023-07-31T11:53:21;358.38;;;324.80;;
63050;SDS011;49136;47.416;19.402;2023-07-31T11:55:53;157.27;;;145.00;;
63050;SDS011;49136;47.416;19.402;2023-07-31T11:58:20;453.42;;;405.88;;
63050;SDS011;49136;47.416;19.402;2023-07-31T12:00:46;201.15;;;185.82;;
63050;SDS011;49136;47.416;19.402;2023-07-31T12:03:12;217.23;;;198.75;;
63050;SDS011;49136;47.416;19.402;2023-07-31T12:05:38;278.23;;;256.88;;
63050;SDS011;49136;47.416;19.402;2023-07-31T12:08:08;263.40;;;242.38;;
63050;SDS011;49136;47.416;19.402;2023-07-31T12:10:36;297.67;;;272.02;;
63050;SDS011;49136;47.416;19.402;2023-07-31T12:13:05;312.92;;;287.05;;
63050;SDS011;49136;47.416;19.402;2023-07-31T12:15:35;276.50;;;257.02;;
63050;SDS011;49136;47.416;19.402;2023-07-31T12:18:05;187.30;;;173.05;;
63050;SDS011;49136;47.416;19.402;2023-07-31T12:20:44;459.58;;;416.33;;
63050;SDS011;49136;47.416;19.402;2023-07-31T12:23:18;220.75;;;204.50;;
63050;SDS011;49136;47.416;19.402;2023-07-31T12:28:44;299.02;;;274.63;;
63050;SDS011;49136;47.416;19.402;2023-07-31T12:31:18;291.10;;;264.23;;
63050;SDS011;49136;47.416;19.402;2023-07-31T12:33:49;171.73;;;158.60;;
63050;SDS011;49136;47.416;19.402;2023-07-31T12:36:17;298.50;;;276.23;;
63050;SDS011;49136;47.416;19.402;2023-07-31T12:38:44;385.63;;;349.67;;
63050;SDS011;49136;47.416;19.402;2023-07-31T12:41:10;275.52;;;255.15;;
63050;SDS011;49136;47.416;19.402;2023-07-31T12:43:39;282.85;;;260.65;;
63050;SDS011;49136;47.416;19.402;2023-07-31T12:46:06;337.17;;;307.50;;
63050;SDS011;49136;47.416;19.402;2023-07-31T12:48:35;217.45;;;200.60;;
63050;SDS011;49136;47.416;19.402;2023-07-31T12:51:02;182.90;;;169.27;;
63050;SDS011;49136;47.416;19.402;2023-07-31T12:53:28;287.50;;;261.02;;
63050;SDS011;49136;47.416;19.402;2023-07-31T12:55:54;332.63;;;303.10;;
63050;SDS011;49136;47.416;19.402;2023-07-31T12:58:20;323.85;;;298.00;;
63050;SDS011;49136;47.416;19.402;2023-07-31T13:00:45;298.23;;;277.35;;
63050;SDS011;49136;47.416;19.402;2023-07-31T13:03:11;340.20;;;310.80;;
63050;SDS011;49136;47.416;19.402;2023-07-31T13:05:36;344.60;;;314.90;;
63050;SDS011;49136;47.416;19.402;2023-07-31T13:08:02;354.92;;;323.55;;
63050;SDS011;49136;47.416;19.402;2023-07-31T13:10:27;403.88;;;368.75;;
63050;SDS011;49136;47.416;19.402;2023-07-31T13:12:53;379.98;;;346.83;;
63050;SDS011;49136;47.416;19.402;2023-07-31T13:15:19;392.02;;;357.83;;
63050;SDS011;49136;47.416;19.402;2023-07-31T13:17:45;393.42;;;358.33;;
63050;SDS011;49136;47.416;19.402;2023-07-31T13:20:11;408.10;;;370.75;;
63050;SDS011;49136;47.416;19.402;2023-07-31T13:22:37;429.35;;;391.10;;
63050;SDS011;49136;47.416;19.402;2023-07-31T13:25:02;429.25;;;390.17;;
63050;SDS011;49136;47.416;19.402;2023-07-31T13:27:28;451.55;;;409.10;;
63050;SDS011;49136;47.416;19.402;2023-07-31T13:29:54;455.20;;;417.70;;
63050;SDS011;49136;47.416;19.402;2023-07-31T13:32:25;366.95;;;338.15;;
63050;SDS011;49136;47.416;19.402;2023-07-31T13:34:51;732.88;;;658.92;;
63050;SDS011;49136;47.416;19.402;2023-07-31T13:37:16;874.45;;;785.65;;
63050;SDS011;49136;47.416;19.402;2023-07-31T13:39:42;855.45;;;768.28;;
63050;SDS011;49136;47.416;19.402;2023-07-31T13:42:08;774.47;;;702.47;;
63050;SDS011;49136;47.416;19.402;2023-07-31T13:44:39;791.67;;;716.33;;
63050;SDS011;49136;47.416;19.402;2023-07-31T13:47:08;829.95;;;747.47;;
63050;SDS011;49136;47.416;19.402;2023-07-31T13:49:34;816.05;;;734.78;;
63050;SDS011;49136;47.416;19.402;2023-07-31T13:52:00;792.40;;;715.13;;
63050;SDS011;49136;47.416;19.402;2023-07-31T13:54:29;793.40;;;709.75;;
63050;SDS011;49136;47.416;19.402;2023-07-31T13:56:55;833.30;;;753.25;;
63050;SDS011;49136;47.416;19.402;2023-07-31T13:59:21;794.92;;;713.10;;
63050;SDS011;49136;47.416;19.402;2023-07-31T14:01:46;831.33;;;750.05;;
63050;SDS011;49136;47.416;19.402;2023-07-31T14:04:12;836.33;;;755.15;;
63050;SDS011;49136;47.416;19.402;2023-07-31T14:06:38;852.50;;;767.97;;
63050;SDS011;49136;47.416;19.402;2023-07-31T14:09:04;845.40;;;761.65;;
63050;SDS011;49136;47.416;19.402;2023-07-31T14:11:32;805.90;;;726.30;;
63050;SDS011;49136;47.416;19.402;2023-07-31T14:13:58;797.30;;;718.83;;